sensor_id;sensor_type;location;lat;lon;timestamp;temperature;humidity
46366;DHT22;32073;49.166;8.076;2022-07-17T00:01:14;22.90;33.80
46366;DHT22;32073;49.166;8.076;2022-07-17T00:05:15;22.70;33.80
46366;DHT22;32073;49.166;8.076;2022-07-17T00:09:16;22.70;33.90
46366;DHT22;32073;49.166;8.076;2022-07-17T00:13:17;22.60;33.90
46366;DHT22;32073;49.166;8.076;2022-07-17T00:17:19;22.60;34.00
46366;DHT22;32073;49.166;8.076;2022-07-17T00:21:21;22.60;34.00
46366;DHT22;32073;49.166;8.076;2022-07-17T00:25:23;22.50;34.00
46366;DHT22;32073;49.166;8.076;2022-07-17T00:29:28;22.30;34.00
46366;DHT22;32073;49.166;8.076;2022-07-17T00:33:29;22.40;34.10
46366;DHT22;32073;49.166;8.076;2022-07-17T00:37:30;22.40;34.20
46366;DHT22;32073;49.166;8.076;2022-07-17T00:41:30;22.30;34.20
46366;DHT22;32073;49.166;8.076;2022-07-17T00:45:31;22.20;34.20
46366;DHT22;32073;49.166;8.076;2022-07-17T00:49:32;22.20;34.30
46366;DHT22;32073;49.166;8.076;2022-07-17T00:53:34;22.10;34.30
46366;DHT22;32073;49.166;8.076;2022-07-17T00:57:40;22.10;35.00
46366;DHT22;32073;49.166;8.076;2022-07-17T01:01:41;22.10;34.50
46366;DHT22;32073;49.166;8.076;2022-07-17T01:05:42;22.00;34.40
46366;DHT22;32073;49.166;8.076;2022-07-17T01:09:43;21.90;34.40
46366;DHT22;32073;49.166;8.076;2022-07-17T01:13:44;22.00;34.50
46366;DHT22;32073;49.166;8.076;2022-07-17T01:21:49;21.90;34.60
46366;DHT22;32073;49.166;8.076;2022-07-17T01:25:50;21.80;34.60
46366;DHT22;32073;49.166;8.076;2022-07-17T01:29:51;21.80;34.60
46366;DHT22;32073;49.166;8.076;2022-07-17T01:33:52;21.80;34.70
46366;DHT22;32073;49.166;8.076;2022-07-17T01:37:53;21.70;34.70
46366;DHT22;32073;49.166;8.076;2022-07-17T01:41:54;21.70;34.90
46366;DHT22;32073;49.166;8.076;2022-07-17T01:45:54;21.70;35.00
46366;DHT22;32073;49.166;8.076;2022-07-17T01:49:57;21.70;35.00
46366;DHT22;32073;49.166;8.076;2022-07-17T01:53:58;21.60;35.00
46366;DHT22;32073;49.166;8.076;2022-07-17T01:57:59;21.50;35.10
46366;DHT22;32073;49.166;8.076;2022-07-17T02:02:00;21.40;35.00
46366;DHT22;32073;49.166;8.076;2022-07-17T02:06:00;21.50;35.10
46366;DHT22;32073;49.166;8.076;2022-07-17T02:10:01;21.40;35.20
46366;DHT22;32073;49.166;8.076;2022-07-17T02:14:02;21.40;35.30
46366;DHT22;32073;49.166;8.076;2022-07-17T02:18:03;21.20;35.30
46366;DHT22;32073;49.166;8.076;2022-07-17T02:22:04;21.20;35.30
46366;DHT22;32073;49.166;8.076;2022-07-17T02:26:05;21.20;35.40
46366;DHT22;32073;49.166;8.076;2022-07-17T02:30:08;21.10;35.50
46366;DHT22;32073;49.166;8.076;2022-07-17T02:34:10;21.10;35.60
46366;DHT22;32073;49.166;8.076;2022-07-17T02:38:11;21.10;35.60
46366;DHT22;32073;49.166;8.076;2022-07-17T02:42:12;21.10;35.70
46366;DHT22;32073;49.166;8.076;2022-07-17T02:46:12;21.00;35.70
46366;DHT22;32073;49.166;8.076;2022-07-17T02:50:16;21.00;35.80
46366;DHT22;32073;49.166;8.076;2022-07-17T02:54:17;20.90;35.90
46366;DHT22;32073;49.166;8.076;2022-07-17T02:58:18;20.90;36.00
46366;DHT22;32073;49.166;8.076;2022-07-17T03:02:18;20.80;36.00
46366;DHT22;32073;49.166;8.076;2022-07-17T03:06:19;20.80;36.00
46366;DHT22;32073;49.166;8.076;2022-07-17T03:10:20;20.80;36.00
46366;DHT22;32073;49.166;8.076;2022-07-17T03:14:20;20.80;36.10
46366;DHT22;32073;49.166;8.076;2022-07-17T03:18:21;20.70;36.20
46366;DHT22;32073;49.166;8.076;2022-07-17T03:22:22;20.70;36.20
46366;DHT22;32073;49.166;8.076;2022-07-17T03:26:22;20.70;36.30
46366;DHT22;32073;49.166;8.076;2022-07-17T03:30:23;20.60;36.20
46366;DHT22;32073;49.166;8.076;2022-07-17T03:34:24;20.60;36.30
46366;DHT22;32073;49.166;8.076;2022-07-17T03:38:25;20.60;36.40
46366;DHT22;32073;49.166;8.076;2022-07-17T03:42:25;20.60;36.40
46366;DHT22;32073;49.166;8.076;2022-07-17T03:46:26;20.50;36.50
46366;DHT22;32073;49.166;8.076;2022-07-17T03:50:27;20.50;36.60
46366;DHT22;32073;49.166;8.076;2022-07-17T03:54:28;20.40;36.60
46366;DHT22;32073;49.166;8.076;2022-07-17T03:58:28;20.40;36.60
46366;DHT22;32073;49.166;8.076;2022-07-17T04:02:29;20.40;36.70
46366;DHT22;32073;49.166;8.076;2022-07-17T04:06:30;20.40;36.80
46366;DHT22;32073;49.166;8.076;2022-07-17T04:10:31;20.40;36.90
46366;DHT22;32073;49.166;8.076;2022-07-17T04:14:31;20.40;36.90
46366;DHT22;32073;49.166;8.076;2022-07-17T04:18:34;20.40;37.00
46366;DHT22;32073;49.166;8.076;2022-07-17T04:22:35;20.40;37.00
46366;DHT22;32073;49.166;8.076;2022-07-17T04:26:36;20.40;37.10
46366;DHT22;32073;49.166;8.076;2022-07-17T04:30:37;20.40;37.20
46366;DHT22;32073;49.166;8.076;2022-07-17T04:34:38;20.40;37.20
46366;DHT22;32073;49.166;8.076;2022-07-17T04:38:39;20.50;37.40
46366;DHT22;32073;49.166;8.076;2022-07-17T04:42:40;20.40;37.30
46366;DHT22;32073;49.166;8.076;2022-07-17T04:46:40;20.40;37.40
46366;DHT22;32073;49.166;8.076;2022-07-17T04:50:41;20.40;37.50
46366;DHT22;32073;49.166;8.076;2022-07-17T04:54:42;20.50;37.80
46366;DHT22;32073;49.166;8.076;2022-07-17T04:58:42;20.50;37.70
46366;DHT22;32073;49.166;8.076;2022-07-17T05:02:43;20.60;38.00
46366;DHT22;32073;49.166;8.076;2022-07-17T05:06:44;20.60;38.80
46366;DHT22;32073;49.166;8.076;2022-07-17T05:10:45;21.00;39.80
46366;DHT22;32073;49.166;8.076;2022-07-17T05:14:46;21.70;40.30
46366;DHT22;32073;49.166;8.076;2022-07-17T05:18:47;22.50;40.40
46366;DHT22;32073;49.166;8.076;2022-07-17T05:22:48;23.30;39.90
46366;DHT22;32073;49.166;8.076;2022-07-17T05:26:48;24.10;39.10
46366;DHT22;32073;49.166;8.076;2022-07-17T05:30:49;24.90;38.50
46366;DHT22;32073;49.166;8.076;2022-07-17T05:34:50;25.50;38.20
46366;DHT22;32073;49.166;8.076;2022-07-17T05:38:50;26.20;37.90
46366;DHT22;32073;49.166;8.076;2022-07-17T05:42:51;26.70;37.20
46366;DHT22;32073;49.166;8.076;2022-07-17T05:46:52;27.20;36.70
46366;DHT22;32073;49.166;8.076;2022-07-17T05:50:53;27.50;36.30
46366;DHT22;32073;49.166;8.076;2022-07-17T05:54:53;27.80;35.50
46366;DHT22;32073;49.166;8.076;2022-07-17T05:58:55;28.00;34.90
46366;DHT22;32073;49.166;8.076;2022-07-17T06:03:05;28.00;34.20
46366;DHT22;32073;49.166;8.076;2022-07-17T06:07:08;27.90;33.80
46366;DHT22;32073;49.166;8.076;2022-07-17T06:11:09;27.70;33.00
46366;DHT22;32073;49.166;8.076;2022-07-17T06:15:10;27.30;32.50
46366;DHT22;32073;49.166;8.076;2022-07-17T06:19:11;26.90;32.60
46366;DHT22;32073;49.166;8.076;2022-07-17T06:23:21;26.50;32.30
46366;DHT22;32073;49.166;8.076;2022-07-17T06:27:22;26.10;32.50
46366;DHT22;32073;49.166;8.076;2022-07-17T06:31:23;25.70;32.40
46366;DHT22;32073;49.166;8.076;2022-07-17T06:35:24;25.20;32.50
46366;DHT22;32073;49.166;8.076;2022-07-17T06:39:25;24.90;32.80
46366;DHT22;32073;49.166;8.076;2022-07-17T06:43:34;24.60;32.80
46366;DHT22;32073;49.166;8.076;2022-07-17T06:47:47;24.30;33.10
46366;DHT22;32073;49.166;8.076;2022-07-17T06:51:47;24.10;33.50
46366;DHT22;32073;49.166;8.076;2022-07-17T06:55:48;23.90;33.70
46366;DHT22;32073;49.166;8.076;2022-07-17T06:59:49;23.80;33.70
46366;DHT22;32073;49.166;8.076;2022-07-17T07:03:49;23.70;33.80
46366;DHT22;32073;49.166;8.076;2022-07-17T07:07:50;23.60;34.00
46366;DHT22;32073;49.166;8.076;2022-07-17T07:11:51;23.60;34.00
46366;DHT22;32073;49.166;8.076;2022-07-17T07:15:52;23.50;34.20
46366;DHT22;32073;49.166;8.076;2022-07-17T07:19:52;23.50;34.10
46366;DHT22;32073;49.166;8.076;2022-07-17T07:23:56;23.50;34.20
46366;DHT22;32073;49.166;8.076;2022-07-17T07:27:57;23.50;34.30
46366;DHT22;32073;49.166;8.076;2022-07-17T07:31:57;23.50;34.40
46366;DHT22;32073;49.166;8.076;2022-07-17T07:35:59;23.50;34.40
46366;DHT22;32073;49.166;8.076;2022-07-17T07:40:00;23.60;34.40
46366;DHT22;32073;49.166;8.076;2022-07-17T07:44:01;23.60;34.20
46366;DHT22;32073;49.166;8.076;2022-07-17T07:48:01;23.70;34.40
46366;DHT22;32073;49.166;8.076;2022-07-17T07:52:02;23.70;34.40
46366;DHT22;32073;49.166;8.076;2022-07-17T07:56:03;23.70;34.20
46366;DHT22;32073;49.166;8.076;2022-07-17T08:00:05;23.80;34.20
46366;DHT22;32073;49.166;8.076;2022-07-17T08:04:58;23.90;34.30
46366;DHT22;32073;49.166;8.076;2022-07-17T08:09:19;23.90;34.20
46366;DHT22;32073;49.166;8.076;2022-07-17T08:13:31;24.00;34.30
46366;DHT22;32073;49.166;8.076;2022-07-17T08:17:50;24.10;34.40
46366;DHT22;32073;49.166;8.076;2022-07-17T08:21:57;24.10;34.20
46366;DHT22;32073;49.166;8.076;2022-07-17T08:26:02;24.20;34.80
46366;DHT22;32073;49.166;8.076;2022-07-17T08:30:05;24.20;34.30
46366;DHT22;32073;49.166;8.076;2022-07-17T08:34:06;24.30;34.40
46366;DHT22;32073;49.166;8.076;2022-07-17T08:38:15;24.40;34.30
46366;DHT22;32073;49.166;8.076;2022-07-17T08:46:35;24.60;34.30
46366;DHT22;32073;49.166;8.076;2022-07-17T08:50:47;24.70;34.20
46366;DHT22;32073;49.166;8.076;2022-07-17T08:54:57;24.70;34.10
46366;DHT22;32073;49.166;8.076;2022-07-17T08:58:57;24.80;33.90
46366;DHT22;32073;49.166;8.076;2022-07-17T09:03:07;24.90;33.80
46366;DHT22;32073;49.166;8.076;2022-07-17T09:07:09;25.00;33.80
46366;DHT22;32073;49.166;8.076;2022-07-17T09:11:10;25.10;33.90
46366;DHT22;32073;49.166;8.076;2022-07-17T09:15:15;25.20;33.80
46366;DHT22;32073;49.166;8.076;2022-07-17T09:19:39;25.40;33.70
46366;DHT22;32073;49.166;8.076;2022-07-17T09:23:41;25.50;33.60
46366;DHT22;32073;49.166;8.076;2022-07-17T09:27:45;25.60;33.90
46366;DHT22;32073;49.166;8.076;2022-07-17T09:31:51;25.60;33.70
46366;DHT22;32073;49.166;8.076;2022-07-17T09:36:12;25.80;33.50
46366;DHT22;32073;49.166;8.076;2022-07-17T09:40:14;25.90;33.50
46366;DHT22;32073;49.166;8.076;2022-07-17T09:44:39;26.00;33.40
46366;DHT22;32073;49.166;8.076;2022-07-17T09:48:43;26.10;33.40
46366;DHT22;32073;49.166;8.076;2022-07-17T09:52:48;26.20;33.20
46366;DHT22;32073;49.166;8.076;2022-07-17T09:56:51;26.30;33.20
46366;DHT22;32073;49.166;8.076;2022-07-17T10:00:55;26.40;33.10
46366;DHT22;32073;49.166;8.076;2022-07-17T10:05:02;26.50;33.10
46366;DHT22;32073;49.166;8.076;2022-07-17T10:09:03;26.60;32.80
46366;DHT22;32073;49.166;8.076;2022-07-17T10:13:05;26.60;32.70
46366;DHT22;32073;49.166;8.076;2022-07-17T10:17:18;26.70;32.60
46366;DHT22;32073;49.166;8.076;2022-07-17T10:21:25;26.80;32.30
46366;DHT22;32073;49.166;8.076;2022-07-17T10:25:32;26.90;32.50
46366;DHT22;32073;49.166;8.076;2022-07-17T10:29:39;27.00;32.10
46366;DHT22;32073;49.166;8.076;2022-07-17T10:33:55;27.10;32.00
46366;DHT22;32073;49.166;8.076;2022-07-17T10:38:12;27.20;32.10
46366;DHT22;32073;49.166;8.076;2022-07-17T10:42:17;27.30;31.80
46366;DHT22;32073;49.166;8.076;2022-07-17T10:46:38;27.30;31.80
46366;DHT22;32073;49.166;8.076;2022-07-17T10:50:45;27.50;31.80
46366;DHT22;32073;49.166;8.076;2022-07-17T10:54:51;27.50;31.60
46366;DHT22;32073;49.166;8.076;2022-07-17T10:59:02;27.60;31.60
46366;DHT22;32073;49.166;8.076;2022-07-17T11:03:11;27.70;31.50
46366;DHT22;32073;49.166;8.076;2022-07-17T11:07:15;27.80;31.40
46366;DHT22;32073;49.166;8.076;2022-07-17T11:11:18;27.90;31.30
46366;DHT22;32073;49.166;8.076;2022-07-17T11:15:24;27.90;30.80
46366;DHT22;32073;49.166;8.076;2022-07-17T12:52:04;29.80;27.80
46366;DHT22;32073;49.166;8.076;2022-07-17T12:56:06;29.90;27.60
46366;DHT22;32073;49.166;8.076;2022-07-17T13:25:10;30.30;27.90
46366;DHT22;32073;49.166;8.076;2022-07-17T13:29:10;30.30;27.60
46366;DHT22;32073;49.166;8.076;2022-07-17T13:33:11;30.30;27.40
46366;DHT22;32073;49.166;8.076;2022-07-17T13:37:12;30.40;27.20
46366;DHT22;32073;49.166;8.076;2022-07-17T13:57:54;30.60;26.80
46366;DHT22;32073;49.166;8.076;2022-07-17T14:01:54;30.60;26.50
46366;DHT22;32073;49.166;8.076;2022-07-17T14:05:55;30.60;26.60
46366;DHT22;32073;49.166;8.076;2022-07-17T14:09:57;30.70;25.90
46366;DHT22;32073;49.166;8.076;2022-07-17T14:13:58;30.70;25.70
46366;DHT22;32073;49.166;8.076;2022-07-17T14:17:59;30.70;26.10
46366;DHT22;32073;49.166;8.076;2022-07-17T14:21:59;30.70;25.60
46366;DHT22;32073;49.166;8.076;2022-07-17T14:26:00;30.80;26.00
46366;DHT22;32073;49.166;8.076;2022-07-17T14:30:01;30.80;25.70
46366;DHT22;32073;49.166;8.076;2022-07-17T14:34:01;30.80;25.60
46366;DHT22;32073;49.166;8.076;2022-07-17T14:38:02;30.80;25.50
46366;DHT22;32073;49.166;8.076;2022-07-17T14:42:06;30.80;25.70
46366;DHT22;32073;49.166;8.076;2022-07-17T14:46:07;30.90;25.00
46366;DHT22;32073;49.166;8.076;2022-07-17T14:50:08;30.90;25.20
46366;DHT22;32073;49.166;8.076;2022-07-17T14:54:09;30.90;25.20
46366;DHT22;32073;49.166;8.076;2022-07-17T14:58:10;30.90;25.20
46366;DHT22;32073;49.166;8.076;2022-07-17T15:02:11;31.00;25.30
46366;DHT22;32073;49.166;8.076;2022-07-17T15:06:11;31.00;25.40
46366;DHT22;32073;49.166;8.076;2022-07-17T15:10:13;31.00;25.20
46366;DHT22;32073;49.166;8.076;2022-07-17T15:14:13;31.00;25.40
46366;DHT22;32073;49.166;8.076;2022-07-17T15:18:14;31.10;25.70
46366;DHT22;32073;49.166;8.076;2022-07-17T15:22:15;31.10;25.40
46366;DHT22;32073;49.166;8.076;2022-07-17T15:26:16;31.10;25.40
46366;DHT22;32073;49.166;8.076;2022-07-17T15:30:17;31.10;25.10
46366;DHT22;32073;49.166;8.076;2022-07-17T15:34:18;31.20;24.90
46366;DHT22;32073;49.166;8.076;2022-07-17T15:38:19;31.20;24.80
46366;DHT22;32073;49.166;8.076;2022-07-17T15:42:20;31.10;24.80
46366;DHT22;32073;49.166;8.076;2022-07-17T15:46:21;31.10;24.70
46366;DHT22;32073;49.166;8.076;2022-07-17T15:50:22;31.10;24.70
46366;DHT22;32073;49.166;8.076;2022-07-17T15:54:22;31.10;24.50
46366;DHT22;32073;49.166;8.076;2022-07-17T15:58:23;31.00;24.60
46366;DHT22;32073;49.166;8.076;2022-07-17T16:02:23;31.00;24.70
46366;DHT22;32073;49.166;8.076;2022-07-17T16:06:25;31.00;24.80
46366;DHT22;32073;49.166;8.076;2022-07-17T16:10:27;31.10;24.70
46366;DHT22;32073;49.166;8.076;2022-07-17T16:14:27;31.00;24.80
46366;DHT22;32073;49.166;8.076;2022-07-17T16:18:28;31.00;24.60
46366;DHT22;32073;49.166;8.076;2022-07-17T16:22:29;31.00;25.30
46366;DHT22;32073;49.166;8.076;2022-07-17T16:26:30;31.00;24.80
46366;DHT22;32073;49.166;8.076;2022-07-17T16:30:31;31.00;24.80
46366;DHT22;32073;49.166;8.076;2022-07-17T16:34:31;31.00;24.80
46366;DHT22;32073;49.166;8.076;2022-07-17T16:38:33;31.00;24.50
46366;DHT22;32073;49.166;8.076;2022-07-17T16:42:34;30.90;24.50
46366;DHT22;32073;49.166;8.076;2022-07-17T16:46:34;30.90;24.40
46366;DHT22;32073;49.166;8.076;2022-07-17T16:50:35;30.90;24.40
46366;DHT22;32073;49.166;8.076;2022-07-17T16:54:36;30.90;24.50
46366;DHT22;32073;49.166;8.076;2022-07-17T17:03:30;30.80;24.50
46366;DHT22;32073;49.166;8.076;2022-07-17T17:07:34;30.80;24.60
46366;DHT22;32073;49.166;8.076;2022-07-17T17:11:35;30.80;24.40
46366;DHT22;32073;49.166;8.076;2022-07-17T17:15:36;30.80;24.50
46366;DHT22;32073;49.166;8.076;2022-07-17T17:19:36;30.80;24.50
46366;DHT22;32073;49.166;8.076;2022-07-17T17:23:37;30.70;24.40
46366;DHT22;32073;49.166;8.076;2022-07-17T17:27:38;30.70;24.50
46366;DHT22;32073;49.166;8.076;2022-07-17T17:31:39;30.70;24.40
46366;DHT22;32073;49.166;8.076;2022-07-17T17:35:39;30.70;24.50
46366;DHT22;32073;49.166;8.076;2022-07-17T17:52:26;30.70;24.50
46366;DHT22;32073;49.166;8.076;2022-07-17T17:56:39;30.70;24.40
46366;DHT22;32073;49.166;8.076;2022-07-17T18:00:40;30.60;24.30
46366;DHT22;32073;49.166;8.076;2022-07-17T18:04:40;30.60;24.30
46366;DHT22;32073;49.166;8.076;2022-07-17T18:08:41;30.60;24.30
46366;DHT22;32073;49.166;8.076;2022-07-17T18:12:42;30.60;24.30
46366;DHT22;32073;49.166;8.076;2022-07-17T18:16:43;30.60;24.40
46366;DHT22;32073;49.166;8.076;2022-07-17T18:20:43;30.50;24.40
46366;DHT22;32073;49.166;8.076;2022-07-17T18:24:44;30.50;24.50
46366;DHT22;32073;49.166;8.076;2022-07-17T18:32:55;30.50;24.50
46366;DHT22;32073;49.166;8.076;2022-07-17T18:36:56;30.40;24.50
46366;DHT22;32073;49.166;8.076;2022-07-17T18:40:57;30.30;24.50
46366;DHT22;32073;49.166;8.076;2022-07-17T18:44:58;30.20;24.60
46366;DHT22;32073;49.166;8.076;2022-07-17T18:48:58;30.10;24.50
46366;DHT22;32073;49.166;8.076;2022-07-17T18:52:59;30.00;24.40
46366;DHT22;32073;49.166;8.076;2022-07-17T18:57:00;29.80;24.40
46366;DHT22;32073;49.166;8.076;2022-07-17T19:01:01;29.80;24.30
46366;DHT22;32073;49.166;8.076;2022-07-17T19:05:02;29.60;24.90
46366;DHT22;32073;49.166;8.076;2022-07-17T19:09:05;29.50;24.50
46366;DHT22;32073;49.166;8.076;2022-07-17T19:13:06;29.40;24.30
46366;DHT22;32073;49.166;8.076;2022-07-17T19:17:07;29.30;24.20
46366;DHT22;32073;49.166;8.076;2022-07-17T19:37:49;28.80;24.50
46366;DHT22;32073;49.166;8.076;2022-07-17T19:41:50;28.60;24.50
46366;DHT22;32073;49.166;8.076;2022-07-17T19:45:52;28.50;24.50
46366;DHT22;32073;49.166;8.076;2022-07-17T19:58:14;28.10;25.00
46366;DHT22;32073;49.166;8.076;2022-07-17T20:02:15;28.00;24.90
46366;DHT22;32073;49.166;8.076;2022-07-17T20:06:15;27.90;25.10
46366;DHT22;32073;49.166;8.076;2022-07-17T20:10:16;27.90;25.30
46366;DHT22;32073;49.166;8.076;2022-07-17T20:14:17;27.70;25.40
46366;DHT22;32073;49.166;8.076;2022-07-17T20:18:18;27.60;25.50
46366;DHT22;32073;49.166;8.076;2022-07-17T20:22:19;27.50;25.60
46366;DHT22;32073;49.166;8.076;2022-07-17T20:26:20;27.40;25.50
46366;DHT22;32073;49.166;8.076;2022-07-17T20:55:23;26.80;25.20
46366;DHT22;32073;49.166;8.076;2022-07-17T21:03:34;26.70;25.20
46366;DHT22;32073;49.166;8.076;2022-07-17T21:07:36;26.70;25.20
46366;DHT22;32073;49.166;8.076;2022-07-17T21:11:37;26.60;25.20
46366;DHT22;32073;49.166;8.076;2022-07-17T21:15:39;26.50;25.10
46366;DHT22;32073;49.166;8.076;2022-07-17T21:23:50;26.40;25.10
46366;DHT22;32073;49.166;8.076;2022-07-17T21:27:50;26.30;25.20
46366;DHT22;32073;49.166;8.076;2022-07-17T21:31:51;26.30;25.20
46366;DHT22;32073;49.166;8.076;2022-07-17T21:35:52;26.30;25.30
46366;DHT22;32073;49.166;8.076;2022-07-17T21:48:14;26.20;25.40
46366;DHT22;32073;49.166;8.076;2022-07-17T21:52:14;26.10;25.30
46366;DHT22;32073;49.166;8.076;2022-07-17T21:56:16;26.10;25.30
46366;DHT22;32073;49.166;8.076;2022-07-17T22:00:17;26.10;25.40
46366;DHT22;32073;49.166;8.076;2022-07-17T22:04:18;26.00;25.40
46366;DHT22;32073;49.166;8.076;2022-07-17T22:08:19;26.00;25.40
46366;DHT22;32073;49.166;8.076;2022-07-17T22:12:20;25.90;25.30
46366;DHT22;32073;49.166;8.076;2022-07-17T22:16:21;25.90;25.50
46366;DHT22;32073;49.166;8.076;2022-07-17T22:20:22;25.90;25.50
46366;DHT22;32073;49.166;8.076;2022-07-17T22:24:23;25.80;25.50
46366;DHT22;32073;49.166;8.076;2022-07-17T22:28:24;25.80;25.50
46366;DHT22;32073;49.166;8.076;2022-07-17T22:32:25;25.70;25.40
46366;DHT22;32073;49.166;8.076;2022-07-17T22:36:26;25.70;25.40
46366;DHT22;32073;49.166;8.076;2022-07-17T22:40:27;25.60;25.30
46366;DHT22;32073;49.166;8.076;2022-07-17T22:44:28;25.60;25.40
46366;DHT22;32073;49.166;8.076;2022-07-17T22:48:29;25.50;25.40
46366;DHT22;32073;49.166;8.076;2022-07-17T22:52:30;25.50;25.40
46366;DHT22;32073;49.166;8.076;2022-07-17T22:56:31;25.50;25.40
46366;DHT22;32073;49.166;8.076;2022-07-17T23:00:32;25.50;25.40
46366;DHT22;32073;49.166;8.076;2022-07-17T23:04:33;25.40;25.40
46366;DHT22;32073;49.166;8.076;2022-07-17T23:08:34;25.30;25.40
46366;DHT22;32073;49.166;8.076;2022-07-17T23:12:35;25.30;25.40
46366;DHT22;32073;49.166;8.076;2022-07-17T23:16:36;25.30;25.50
46366;DHT22;32073;49.166;8.076;2022-07-17T23:20:36;25.20;25.50
46366;DHT22;32073;49.166;8.076;2022-07-17T23:24:37;25.20;25.50
46366;DHT22;32073;49.166;8.076;2022-07-17T23:28:38;25.20;25.60
46366;DHT22;32073;49.166;8.076;2022-07-17T23:32:39;25.10;25.60
46366;DHT22;32073;49.166;8.076;2022-07-17T23:36:40;25.10;25.70
46366;DHT22;32073;49.166;8.076;2022-07-17T23:40:40;25.00;25.70
46366;DHT22;32073;49.166;8.076;2022-07-17T23:44:41;25.00;25.70
46366;DHT22;32073;49.166;8.076;2022-07-17T23:48:42;24.90;25.70
46366;DHT22;32073;49.166;8.076;2022-07-17T23:52:43;24.90;25.90
46366;DHT22;32073;49.166;8.076;2022-07-17T23:56:44;24.90;25.90
